createdAt,value
2022-09-15T00:03:29.004Z,15.20
2022-09-15T00:08:31.120Z,14.63
2022-09-15T00:13:33.871Z,15.93
2022-09-15T00:18:36.585Z,14.75
2022-09-15T00:23:38.933Z,15.02
2022-09-15T00:28:40.936Z,14.65
2022-09-15T00:33:43.200Z,15.80
2022-09-15T00:38:45.474Z,14.10
2022-09-15T00:43:57.237Z,13.68
2022-09-15T00:49:07.988Z,14.65
2022-09-15T00:54:16.752Z,13.85
2022-09-15T00:59:21.430Z,14.00
2022-09-15T01:04:23.106Z,13.68
2022-09-15T01:09:38.638Z,13.60
2022-09-15T01:14:40.348Z,13.38
2022-09-15T01:19:51.415Z,13.32
2022-09-15T01:24:52.951Z,14.00
2022-09-15T01:30:07.008Z,13.52
2022-09-15T01:35:25.193Z,12.13
2022-09-15T01:40:32.647Z,14.20
2022-09-15T01:45:35.753Z,13.50
2022-09-15T01:50:46.673Z,13.02
2022-09-15T01:55:57.342Z,13.05
2022-09-15T02:01:06.563Z,13.18
2022-09-15T02:06:14.583Z,13.48
2022-09-15T02:11:28.005Z,11.75
2022-09-15T02:16:35.328Z,11.93
2022-09-15T02:26:44.402Z,11.85
2022-09-15T02:31:48.702Z,13.95
2022-09-15T02:36:53.144Z,12.40
2022-09-15T02:41:54.913Z,12.60
2022-09-15T02:46:58.474Z,12.75
2022-09-15T02:52:00.159Z,12.68
2022-09-15T02:57:01.789Z,12.25
2022-09-15T03:02:03.969Z,11.05
2022-09-15T03:07:05.679Z,10.50
2022-09-15T03:12:09.443Z,8.82
2022-09-15T03:17:11.078Z,9.30
2022-09-15T03:22:12.836Z,8.52
2022-09-15T03:27:14.517Z,7.53
2022-09-15T03:32:16.342Z,8.27
2022-09-15T03:37:18.172Z,9.68
2022-09-15T03:42:20.421Z,8.93
2022-09-15T03:47:22.020Z,7.22
2022-09-15T03:52:23.681Z,7.47
2022-09-15T03:57:25.299Z,8.80
2022-09-15T04:02:27.076Z,7.68
2022-09-15T04:07:28.891Z,8.07
2022-09-15T04:12:32.413Z,7.13
2022-09-15T04:17:34.253Z,7.35
2022-09-15T04:22:36.112Z,6.80
2022-09-15T04:27:38.659Z,6.40
2022-09-15T04:32:40.291Z,6.95
2022-09-15T04:37:42.086Z,6.45
2022-09-15T04:42:43.795Z,5.00
2022-09-15T04:47:48.330Z,4.80
2022-09-15T04:52:50.081Z,3.67
2022-09-15T04:57:53.054Z,6.07
2022-09-15T05:02:54.718Z,3.45
2022-09-15T05:07:56.388Z,3.72
2022-09-15T05:12:58.094Z,3.70
2022-09-15T05:17:59.793Z,3.47
2022-09-15T05:23:01.543Z,3.10
2022-09-15T05:28:03.208Z,3.20
2022-09-15T05:33:05.630Z,4.93
2022-09-15T05:38:07.275Z,3.20
2022-09-15T05:43:08.931Z,2.53
2022-09-15T05:48:11.840Z,2.00
2022-09-15T05:53:13.486Z,2.22
2022-09-15T05:58:15.521Z,2.45
2022-09-15T06:03:17.697Z,2.38
2022-09-15T06:08:19.402Z,2.05
2022-09-15T06:13:21.011Z,2.63
2022-09-15T06:18:22.767Z,2.50
2022-09-15T06:23:24.894Z,2.63
2022-09-15T06:28:26.603Z,2.67
2022-09-15T06:33:28.199Z,1.88
2022-09-15T06:38:30.174Z,1.67
2022-09-15T06:43:33.487Z,1.98
2022-09-15T06:48:39.041Z,2.50
2022-09-15T06:53:40.975Z,1.77
2022-09-15T06:58:44.012Z,1.85
2022-09-15T07:03:46.333Z,2.63
2022-09-15T07:08:48.276Z,3.13
2022-09-15T07:13:50.413Z,1.70
2022-09-15T07:18:55.503Z,1.60
2022-09-15T07:23:57.917Z,2.10
2022-09-15T07:29:05.167Z,1.95
2022-09-15T07:34:07.776Z,1.60
2022-09-15T07:39:10.355Z,1.50
2022-09-15T07:44:13.289Z,2.03
2022-09-15T07:49:14.905Z,1.48
2022-09-15T07:54:21.479Z,1.60
2022-09-15T07:59:25.356Z,2.10
2022-09-15T08:04:27.151Z,3.08
2022-09-15T08:09:28.800Z,1.60
2022-09-15T08:14:32.749Z,2.00
2022-09-15T08:19:35.469Z,1.55
2022-09-15T08:24:37.424Z,2.00
2022-09-15T08:29:39.121Z,2.42
2022-09-15T08:34:40.888Z,2.42
2022-09-15T08:39:43.049Z,1.30
2022-09-15T08:44:50.025Z,2.00
2022-09-15T08:50:16.335Z,1.50
2022-09-15T08:55:27.804Z,1.60
2022-09-15T09:00:30.080Z,1.83
2022-09-15T09:05:53.604Z,1.48
2022-09-15T09:11:09.504Z,1.20
2022-09-15T09:16:31.910Z,2.03
2022-09-15T09:21:38.981Z,1.65
2022-09-15T09:26:40.754Z,1.48
2022-09-15T09:31:43.250Z,1.33
2022-09-15T09:36:44.962Z,1.58
2022-09-15T09:41:47.234Z,0.88
2022-09-15T09:46:49.272Z,1.33
2022-09-15T09:51:55.837Z,2.35
2022-09-15T09:57:21.997Z,1.58
2022-09-15T10:02:28.891Z,2.75
2022-09-15T10:07:33.513Z,2.22
2022-09-15T10:12:40.725Z,1.48
2022-09-15T10:17:45.517Z,1.23
2022-09-15T10:22:47.646Z,1.77
2022-09-15T10:28:03.292Z,1.45
2022-09-15T10:33:38.465Z,1.05
2022-09-15T10:38:59.005Z,1.00
2022-09-15T10:44:03.381Z,1.20
2022-09-15T10:49:47.539Z,1.30
2022-09-15T10:54:51.835Z,1.10
2022-09-15T11:00:03.983Z,2.25
2022-09-15T11:05:32.192Z,1.42
2022-09-15T11:10:43.044Z,1.40
2022-09-15T11:15:52.642Z,1.30
2022-09-15T11:21:47.626Z,0.90
2022-09-15T11:27:01.043Z,1.35
2022-09-15T11:32:11.860Z,1.33
2022-09-15T11:37:20.348Z,2.90
2022-09-15T11:42:44.924Z,1.42
2022-09-15T11:48:19.423Z,1.67
2022-09-15T11:53:37.412Z,1.77
2022-09-15T11:59:03.926Z,1.50
2022-09-15T12:04:22.375Z,1.33
2022-09-15T12:09:24.059Z,1.23
2022-09-15T12:14:42.024Z,1.60
2022-09-15T12:19:53.318Z,1.90
2022-09-15T12:25:23.963Z,1.25
2022-09-15T12:30:41.212Z,1.92
2022-09-15T12:35:43.092Z,1.25
2022-09-15T12:40:44.856Z,1.10
2022-09-15T12:45:56.054Z,1.23
2022-09-15T12:51:06.821Z,1.25
2022-09-15T12:56:20.952Z,0.82
2022-09-15T13:01:34.202Z,1.00
2022-09-15T13:06:38.431Z,1.15
2022-09-15T13:11:42.768Z,1.15
2022-09-15T13:16:59.577Z,0.80
2022-09-15T13:22:12.188Z,1.25
2022-09-15T13:27:18.206Z,1.23
2022-09-15T13:32:35.743Z,1.27
2022-09-15T13:38:15.174Z,1.02
2022-09-15T13:43:40.641Z,1.75
2022-09-15T13:48:48.296Z,0.98
2022-09-15T13:59:09.746Z,0.60
2022-09-15T14:04:21.951Z,1.10
2022-09-15T14:09:28.425Z,0.98
2022-09-15T14:14:42.768Z,1.00
2022-09-15T14:19:44.463Z,0.90
2022-09-15T14:24:47.200Z,1.20
2022-09-15T14:29:54.401Z,1.20
2022-09-15T14:40:16.258Z,1.55
2022-09-15T14:50:54.303Z,1.70
2022-09-15T14:56:08.249Z,1.85
2022-09-15T15:01:17.252Z,1.20
2022-09-15T15:06:34.816Z,1.42
2022-09-15T15:11:38.863Z,2.33
2022-09-15T15:16:52.208Z,1.35
2022-09-15T15:22:07.320Z,1.20
2022-09-15T15:27:33.679Z,1.48
2022-09-15T15:32:35.300Z,1.63
2022-09-15T15:37:37.024Z,1.20
2022-09-15T15:42:52.235Z,1.60
2022-09-15T15:47:55.171Z,1.10
2022-09-15T15:52:56.802Z,1.05
2022-09-15T15:57:58.566Z,1.70
2022-09-15T16:03:00.278Z,1.30
2022-09-15T16:08:05.852Z,1.23
2022-09-15T16:13:08.433Z,1.20
2022-09-15T16:18:10.417Z,1.00
2022-09-15T16:23:14.988Z,1.13
2022-09-15T16:28:17.360Z,1.58
2022-09-15T16:33:19.692Z,1.10
2022-09-15T16:38:25.384Z,1.17
2022-09-15T16:43:28.406Z,1.15
2022-09-15T16:48:30.028Z,1.25
2022-09-15T16:53:32.738Z,0.90
2022-09-15T16:58:34.368Z,1.15
2022-09-15T17:03:43.335Z,1.33
2022-09-15T17:08:46.056Z,1.38
2022-09-15T17:13:48.042Z,1.60
2022-09-15T17:18:50.097Z,1.20
2022-09-15T17:23:51.901Z,1.35
2022-09-15T17:28:55.469Z,1.02
2022-09-15T17:33:57.098Z,1.23
2022-09-15T17:38:59.097Z,1.45
2022-09-15T17:44:00.803Z,1.08
2022-09-15T17:49:02.436Z,0.88
2022-09-15T17:54:04.321Z,1.17
2022-09-15T17:59:07.993Z,1.70
2022-09-15T18:04:11.189Z,1.20
2022-09-15T18:09:14.837Z,0.88
2022-09-15T18:14:17.594Z,1.25
2022-09-15T18:19:19.405Z,1.52
2022-09-15T18:24:21.095Z,1.63
2022-09-15T18:29:22.837Z,1.33
2022-09-15T18:34:24.749Z,1.20
2022-09-15T18:39:26.528Z,1.30
2022-09-15T18:44:28.180Z,0.90
2022-09-15T18:49:29.837Z,1.45
2022-09-15T18:54:34.810Z,1.20
2022-09-15T18:59:36.589Z,0.90
2022-09-15T19:04:40.630Z,1.40
2022-09-15T19:09:42.739Z,0.95
2022-09-15T19:14:46.653Z,1.48
2022-09-15T19:19:49.416Z,1.00
2022-09-15T19:24:51.294Z,0.90
2022-09-15T19:29:53.207Z,1.33
2022-09-15T19:34:54.926Z,1.23
2022-09-15T19:39:56.752Z,1.00
2022-09-15T19:44:58.406Z,1.20
2022-09-15T19:50:00.070Z,1.30
2022-09-15T19:55:01.924Z,1.38
2022-09-15T20:00:06.318Z,1.00
2022-09-15T20:10:27.727Z,1.05
2022-09-15T20:15:29.698Z,1.08
2022-09-15T20:20:31.327Z,0.93
2022-09-15T20:25:33.125Z,0.57
2022-09-15T20:30:35.062Z,1.00
2022-09-15T20:35:37.029Z,0.95
2022-09-15T20:40:38.762Z,1.15
2022-09-15T20:45:40.448Z,1.50
2022-09-15T20:50:42.260Z,1.70
2022-09-15T20:55:49.459Z,1.50
2022-09-15T21:00:52.557Z,1.80
2022-09-15T21:06:00.409Z,3.92
2022-09-15T21:11:02.812Z,1.50
2022-09-15T21:16:09.834Z,2.10
2022-09-15T21:21:13.111Z,1.38
2022-09-15T21:26:20.354Z,1.00
2022-09-15T21:31:24.491Z,0.88
2022-09-15T21:36:29.548Z,1.23
2022-09-15T21:41:31.261Z,2.70
2022-09-15T21:46:32.938Z,1.40
2022-09-15T21:51:34.577Z,1.30
2022-09-15T21:56:36.574Z,1.45
2022-09-15T22:01:39.479Z,1.33
2022-09-15T22:06:42.008Z,2.78
2022-09-15T22:11:44.409Z,1.50
2022-09-15T22:16:46.212Z,1.90
2022-09-15T22:21:47.944Z,1.95
2022-09-15T22:26:49.628Z,1.95
2022-09-15T22:31:51.536Z,1.92
2022-09-15T22:36:53.230Z,1.58
2022-09-15T22:41:54.894Z,1.13
2022-09-15T22:46:56.692Z,1.55
2022-09-15T22:51:58.636Z,1.40
2022-09-15T22:57:00.420Z,1.20
2022-09-15T23:02:02.150Z,1.15
2022-09-15T23:07:04.496Z,1.10
2022-09-15T23:12:09.018Z,1.45
2022-09-15T23:17:10.718Z,1.00
2022-09-15T23:22:12.501Z,1.00
2022-09-15T23:27:14.330Z,1.65
2022-09-15T23:32:17.380Z,0.88
2022-09-15T23:37:18.994Z,1.13
2022-09-15T23:42:20.625Z,0.77
2022-09-15T23:47:23.220Z,1.10
2022-09-15T23:52:24.945Z,1.48
2022-09-15T23:57:26.578Z,1.33
